sensor_id;sensor_type;location;lat;lon;timestamp;temperature;humidity
75451;DHT22;64029;48.244;9.188;2023-02-04T00:00:00;4.10;90.20
75451;DHT22;64029;48.244;9.188;2023-02-04T00:02:27;4.10;90.00
75451;DHT22;64029;48.244;9.188;2023-02-04T00:04:54;4.10;89.90
75451;DHT22;64029;48.244;9.188;2023-02-04T00:07:22;4.10;89.90
75451;DHT22;64029;48.244;9.188;2023-02-04T00:09:49;4.10;90.40
75451;DHT22;64029;48.244;9.188;2023-02-04T00:12:16;4.10;90.10
75451;DHT22;64029;48.244;9.188;2023-02-04T00:14:42;4.10;90.40
75451;DHT22;64029;48.244;9.188;2023-02-04T00:17:09;4.10;90.20
75451;DHT22;64029;48.244;9.188;2023-02-04T00:19:38;4.10;90.30
75451;DHT22;64029;48.244;9.188;2023-02-04T00:22:05;4.10;90.00
75451;DHT22;64029;48.244;9.188;2023-02-04T00:24:34;4.10;89.80
75451;DHT22;64029;48.244;9.188;2023-02-04T00:27:01;4.10;89.90
75451;DHT22;64029;48.244;9.188;2023-02-04T00:29:28;4.10;89.90
75451;DHT22;64029;48.244;9.188;2023-02-04T00:31:55;4.10;89.60
75451;DHT22;64029;48.244;9.188;2023-02-04T00:34:22;4.10;89.60
75451;DHT22;64029;48.244;9.188;2023-02-04T00:36:49;4.10;90.10
75451;DHT22;64029;48.244;9.188;2023-02-04T00:39:15;4.10;89.80
75451;DHT22;64029;48.244;9.188;2023-02-04T00:41:44;4.10;89.60
75451;DHT22;64029;48.244;9.188;2023-02-04T00:44:11;4.10;89.80
75451;DHT22;64029;48.244;9.188;2023-02-04T00:46:40;4.10;90.30
75451;DHT22;64029;48.244;9.188;2023-02-04T00:49:07;4.10;90.50
75451;DHT22;64029;48.244;9.188;2023-02-04T00:51:36;4.10;90.90
75451;DHT22;64029;48.244;9.188;2023-02-04T00:54:03;4.10;90.90
75451;DHT22;64029;48.244;9.188;2023-02-04T00:56:31;4.10;90.60
75451;DHT22;64029;48.244;9.188;2023-02-04T00:58:59;4.10;90.40
75451;DHT22;64029;48.244;9.188;2023-02-04T01:01:26;4.10;90.40
75451;DHT22;64029;48.244;9.188;2023-02-04T01:03:53;4.10;90.70
75451;DHT22;64029;48.244;9.188;2023-02-04T01:06:19;4.10;90.50
75451;DHT22;64029;48.244;9.188;2023-02-04T01:08:46;4.10;90.70
75451;DHT22;64029;48.244;9.188;2023-02-04T01:11:13;4.10;90.20
75451;DHT22;64029;48.244;9.188;2023-02-04T01:13:40;4.10;90.20
75451;DHT22;64029;48.244;9.188;2023-02-04T01:16:08;4.10;90.70
75451;DHT22;64029;48.244;9.188;2023-02-04T01:18:35;4.20;90.60
75451;DHT22;64029;48.244;9.188;2023-02-04T01:21:02;4.20;90.90
75451;DHT22;64029;48.244;9.188;2023-02-04T01:23:29;4.20;90.50
75451;DHT22;64029;48.244;9.188;2023-02-04T01:25:56;4.20;90.30
75451;DHT22;64029;48.244;9.188;2023-02-04T01:28:23;4.10;90.20
75451;DHT22;64029;48.244;9.188;2023-02-04T01:30:50;4.10;90.20
75451;DHT22;64029;48.244;9.188;2023-02-04T01:33:19;4.10;90.30
75451;DHT22;64029;48.244;9.188;2023-02-04T01:35:45;4.10;90.20
75451;DHT22;64029;48.244;9.188;2023-02-04T01:38:12;4.10;90.10
75451;DHT22;64029;48.244;9.188;2023-02-04T01:40:40;4.20;90.10
75451;DHT22;64029;48.244;9.188;2023-02-04T01:43:07;4.20;90.10
75451;DHT22;64029;48.244;9.188;2023-02-04T01:45:34;4.20;90.30
75451;DHT22;64029;48.244;9.188;2023-02-04T01:48:02;4.20;90.30
75451;DHT22;64029;48.244;9.188;2023-02-04T01:50:31;4.20;90.40
75451;DHT22;64029;48.244;9.188;2023-02-04T01:52:59;4.20;90.70
75451;DHT22;64029;48.244;9.188;2023-02-04T01:55:28;4.20;90.40
75451;DHT22;64029;48.244;9.188;2023-02-04T02:01:34;4.20;90.40
75451;DHT22;64029;48.244;9.188;2023-02-04T02:04:13;4.20;90.60
75451;DHT22;64029;48.244;9.188;2023-02-04T02:06:52;4.20;90.50
75451;DHT22;64029;48.244;9.188;2023-02-04T02:09:38;4.20;91.30
75451;DHT22;64029;48.244;9.188;2023-02-04T02:12:37;4.20;90.70
75451;DHT22;64029;48.244;9.188;2023-02-04T02:15:38;4.20;90.60
75451;DHT22;64029;48.244;9.188;2023-02-04T02:18:15;4.20;90.70
75451;DHT22;64029;48.244;9.188;2023-02-04T02:21:08;4.20;90.60
75451;DHT22;64029;48.244;9.188;2023-02-04T02:24:23;4.20;90.50
75451;DHT22;64029;48.244;9.188;2023-02-04T02:34:02;4.20;90.70
75451;DHT22;64029;48.244;9.188;2023-02-04T02:36:50;4.20;90.50
75451;DHT22;64029;48.244;9.188;2023-02-04T02:40:02;4.20;90.40
75451;DHT22;64029;48.244;9.188;2023-02-04T02:42:33;4.20;90.40
75451;DHT22;64029;48.244;9.188;2023-02-04T02:45:21;4.20;90.70
75451;DHT22;64029;48.244;9.188;2023-02-04T02:47:50;4.20;90.70
75451;DHT22;64029;48.244;9.188;2023-02-04T03:00:20;4.20;90.60
75451;DHT22;64029;48.244;9.188;2023-02-04T03:02:53;4.20;90.80
75451;DHT22;64029;48.244;9.188;2023-02-04T03:05:20;4.30;91.00
75451;DHT22;64029;48.244;9.188;2023-02-04T03:07:48;4.30;90.80
75451;DHT22;64029;48.244;9.188;2023-02-04T03:10:15;4.30;90.80
75451;DHT22;64029;48.244;9.188;2023-02-04T03:12:42;4.30;91.50
75451;DHT22;64029;48.244;9.188;2023-02-04T03:15:09;4.30;91.20
75451;DHT22;64029;48.244;9.188;2023-02-04T03:17:38;4.30;91.00
75451;DHT22;64029;48.244;9.188;2023-02-04T03:20:06;4.30;91.10
75451;DHT22;64029;48.244;9.188;2023-02-04T03:22:33;4.30;91.00
75451;DHT22;64029;48.244;9.188;2023-02-04T03:25:00;4.30;90.90
75451;DHT22;64029;48.244;9.188;2023-02-04T03:27:27;4.30;90.90
75451;DHT22;64029;48.244;9.188;2023-02-04T03:29:54;4.30;90.90
75451;DHT22;64029;48.244;9.188;2023-02-04T03:32:21;4.30;90.70
75451;DHT22;64029;48.244;9.188;2023-02-04T03:34:49;4.30;90.80
75451;DHT22;64029;48.244;9.188;2023-02-04T03:37:16;4.30;90.80
75451;DHT22;64029;48.244;9.188;2023-02-04T03:39:43;4.30;90.70
75451;DHT22;64029;48.244;9.188;2023-02-04T03:42:09;4.30;90.90
75451;DHT22;64029;48.244;9.188;2023-02-04T03:44:36;4.30;90.80
75451;DHT22;64029;48.244;9.188;2023-02-04T03:47:03;4.30;90.90
75451;DHT22;64029;48.244;9.188;2023-02-04T03:49:30;4.30;91.20
75451;DHT22;64029;48.244;9.188;2023-02-04T03:51:59;4.30;91.30
75451;DHT22;64029;48.244;9.188;2023-02-04T03:54:25;4.30;90.90
75451;DHT22;64029;48.244;9.188;2023-02-04T03:56:52;4.30;91.00
75451;DHT22;64029;48.244;9.188;2023-02-04T03:59:19;4.30;91.00
75451;DHT22;64029;48.244;9.188;2023-02-04T04:01:46;4.30;91.00
75451;DHT22;64029;48.244;9.188;2023-02-04T04:04:12;4.30;91.30
75451;DHT22;64029;48.244;9.188;2023-02-04T04:06:39;4.30;91.10
75451;DHT22;64029;48.244;9.188;2023-02-04T04:09:07;4.30;91.10
75451;DHT22;64029;48.244;9.188;2023-02-04T04:11:34;4.40;91.30
75451;DHT22;64029;48.244;9.188;2023-02-04T04:14:01;4.30;91.50
75451;DHT22;64029;48.244;9.188;2023-02-04T04:16:28;4.30;91.20
75451;DHT22;64029;48.244;9.188;2023-02-04T04:18:55;4.30;91.10
75451;DHT22;64029;48.244;9.188;2023-02-04T04:21:22;4.30;90.90
75451;DHT22;64029;48.244;9.188;2023-02-04T04:23:48;4.40;91.30
75451;DHT22;64029;48.244;9.188;2023-02-04T04:26:16;4.30;91.20
75451;DHT22;64029;48.244;9.188;2023-02-04T04:28:43;4.30;91.20
75451;DHT22;64029;48.244;9.188;2023-02-04T04:31:10;4.30;91.20
75451;DHT22;64029;48.244;9.188;2023-02-04T04:33:37;4.40;91.40
75451;DHT22;64029;48.244;9.188;2023-02-04T04:36:04;4.40;91.40
75451;DHT22;64029;48.244;9.188;2023-02-04T04:38:31;4.40;91.20
75451;DHT22;64029;48.244;9.188;2023-02-04T04:40:58;4.30;91.10
75451;DHT22;64029;48.244;9.188;2023-02-04T04:43:26;4.40;91.10
75451;DHT22;64029;48.244;9.188;2023-02-04T04:45:53;4.30;91.10
75451;DHT22;64029;48.244;9.188;2023-02-04T04:48:20;4.30;91.10
75451;DHT22;64029;48.244;9.188;2023-02-04T04:50:47;4.30;91.20
75451;DHT22;64029;48.244;9.188;2023-02-04T04:53:14;4.30;91.10
75451;DHT22;64029;48.244;9.188;2023-02-04T04:55:41;4.30;91.00
75451;DHT22;64029;48.244;9.188;2023-02-04T04:58:08;4.30;91.00
75451;DHT22;64029;48.244;9.188;2023-02-04T05:00:36;4.30;90.90
75451;DHT22;64029;48.244;9.188;2023-02-04T05:03:03;4.30;90.80
75451;DHT22;64029;48.244;9.188;2023-02-04T05:05:30;4.30;90.70
75451;DHT22;64029;48.244;9.188;2023-02-04T05:07:57;4.30;90.70
75451;DHT22;64029;48.244;9.188;2023-02-04T05:10:23;4.30;90.60
75451;DHT22;64029;48.244;9.188;2023-02-04T05:12:50;4.30;90.60
75451;DHT22;64029;48.244;9.188;2023-02-04T05:15:17;4.30;90.60
75451;DHT22;64029;48.244;9.188;2023-02-04T05:17:45;4.20;90.60
75451;DHT22;64029;48.244;9.188;2023-02-04T05:20:12;4.20;90.50
75451;DHT22;64029;48.244;9.188;2023-02-04T05:22:39;4.20;90.50
75451;DHT22;64029;48.244;9.188;2023-02-04T05:25:06;4.30;90.50
75451;DHT22;64029;48.244;9.188;2023-02-04T05:27:33;4.20;90.50
75451;DHT22;64029;48.244;9.188;2023-02-04T05:29:59;4.30;90.60
75451;DHT22;64029;48.244;9.188;2023-02-04T05:32:26;4.20;90.50
75451;DHT22;64029;48.244;9.188;2023-02-04T05:34:54;4.20;90.40
75451;DHT22;64029;48.244;9.188;2023-02-04T05:37:21;4.20;90.50
75451;DHT22;64029;48.244;9.188;2023-02-04T05:39:48;4.20;90.50
75451;DHT22;64029;48.244;9.188;2023-02-04T05:42:15;4.20;90.60
75451;DHT22;64029;48.244;9.188;2023-02-04T05:44:41;4.20;90.80
75451;DHT22;64029;48.244;9.188;2023-02-04T05:47:08;4.20;90.50
75451;DHT22;64029;48.244;9.188;2023-02-04T05:49:35;4.20;90.50
75451;DHT22;64029;48.244;9.188;2023-02-04T05:52:03;4.20;90.70
75451;DHT22;64029;48.244;9.188;2023-02-04T05:54:30;4.20;90.60
75451;DHT22;64029;48.244;9.188;2023-02-04T05:56:57;4.20;91.10
75451;DHT22;64029;48.244;9.188;2023-02-04T05:59:24;4.20;90.80
75451;DHT22;64029;48.244;9.188;2023-02-04T06:01:51;4.10;90.90
75451;DHT22;64029;48.244;9.188;2023-02-04T06:04:18;4.10;90.80
75451;DHT22;64029;48.244;9.188;2023-02-04T06:06:44;4.10;90.70
75451;DHT22;64029;48.244;9.188;2023-02-04T06:09:13;4.00;90.70
75451;DHT22;64029;48.244;9.188;2023-02-04T06:11:39;4.00;90.60
75451;DHT22;64029;48.244;9.188;2023-02-04T06:14:06;4.00;90.40
75451;DHT22;64029;48.244;9.188;2023-02-04T06:16:33;3.90;90.20
75451;DHT22;64029;48.244;9.188;2023-02-04T06:19:00;3.90;90.20
75451;DHT22;64029;48.244;9.188;2023-02-04T06:21:27;3.90;90.30
75451;DHT22;64029;48.244;9.188;2023-02-04T06:23:53;3.90;90.30
75451;DHT22;64029;48.244;9.188;2023-02-04T06:26:22;3.90;90.20
75451;DHT22;64029;48.244;9.188;2023-02-04T06:28:48;3.90;90.10
75451;DHT22;64029;48.244;9.188;2023-02-04T06:31:15;3.80;90.10
75451;DHT22;64029;48.244;9.188;2023-02-04T06:33:42;3.90;90.00
75451;DHT22;64029;48.244;9.188;2023-02-04T06:36:09;3.80;89.70
75451;DHT22;64029;48.244;9.188;2023-02-04T06:38:35;3.80;89.90
75451;DHT22;64029;48.244;9.188;2023-02-04T06:41:02;3.80;90.00
75451;DHT22;64029;48.244;9.188;2023-02-04T06:43:30;3.80;89.70
75451;DHT22;64029;48.244;9.188;2023-02-04T06:45:57;3.80;89.70
75451;DHT22;64029;48.244;9.188;2023-02-04T06:48:24;3.80;89.60
75451;DHT22;64029;48.244;9.188;2023-02-04T06:50:51;3.70;89.30
75451;DHT22;64029;48.244;9.188;2023-02-04T06:53:18;3.70;89.20
75451;DHT22;64029;48.244;9.188;2023-02-04T06:55:44;3.70;89.20
75451;DHT22;64029;48.244;9.188;2023-02-04T06:58:11;3.60;88.90
75451;DHT22;64029;48.244;9.188;2023-02-04T07:00:40;3.60;89.10
75451;DHT22;64029;48.244;9.188;2023-02-04T07:03:06;3.60;89.80
75451;DHT22;64029;48.244;9.188;2023-02-04T07:05:33;3.60;89.10
75451;DHT22;64029;48.244;9.188;2023-02-04T07:08:00;3.60;89.10
75451;DHT22;64029;48.244;9.188;2023-02-04T07:10:27;3.60;89.20
75451;DHT22;64029;48.244;9.188;2023-02-04T07:12:54;3.60;89.30
75451;DHT22;64029;48.244;9.188;2023-02-04T07:15:20;3.60;89.30
75451;DHT22;64029;48.244;9.188;2023-02-04T07:17:49;3.50;89.40
75451;DHT22;64029;48.244;9.188;2023-02-04T07:20:16;3.50;89.40
75451;DHT22;64029;48.244;9.188;2023-02-04T07:22:43;3.50;89.60
75451;DHT22;64029;48.244;9.188;2023-02-04T07:25:09;3.50;89.60
75451;DHT22;64029;48.244;9.188;2023-02-04T07:27:39;3.50;89.50
75451;DHT22;64029;48.244;9.188;2023-02-04T07:30:07;3.50;89.50
75451;DHT22;64029;48.244;9.188;2023-02-04T07:32:34;3.50;89.50
75451;DHT22;64029;48.244;9.188;2023-02-04T07:35:02;3.50;89.50
75451;DHT22;64029;48.244;9.188;2023-02-04T07:37:29;3.50;89.50
75451;DHT22;64029;48.244;9.188;2023-02-04T07:39:56;3.50;89.50
75451;DHT22;64029;48.244;9.188;2023-02-04T07:42:23;3.40;89.40
75451;DHT22;64029;48.244;9.188;2023-02-04T07:44:50;3.40;89.40
75451;DHT22;64029;48.244;9.188;2023-02-04T07:47:17;3.40;89.50
75451;DHT22;64029;48.244;9.188;2023-02-04T07:49:43;3.40;89.50
75451;DHT22;64029;48.244;9.188;2023-02-04T07:52:11;3.40;89.60
75451;DHT22;64029;48.244;9.188;2023-02-04T07:54:38;3.40;89.60
75451;DHT22;64029;48.244;9.188;2023-02-04T07:57:05;3.40;89.60
75451;DHT22;64029;48.244;9.188;2023-02-04T07:59:32;3.40;89.50
75451;DHT22;64029;48.244;9.188;2023-02-04T08:01:59;3.40;89.50
75451;DHT22;64029;48.244;9.188;2023-02-04T08:04:26;3.40;89.50
75451;DHT22;64029;48.244;9.188;2023-02-04T08:06:53;3.40;89.50
75451;DHT22;64029;48.244;9.188;2023-02-04T08:09:21;3.40;89.50
75451;DHT22;64029;48.244;9.188;2023-02-04T08:11:48;3.40;89.60
75451;DHT22;64029;48.244;9.188;2023-02-04T08:14:15;3.40;89.50
75451;DHT22;64029;48.244;9.188;2023-02-04T08:16:42;3.40;89.50
75451;DHT22;64029;48.244;9.188;2023-02-04T08:19:09;3.40;89.60
75451;DHT22;64029;48.244;9.188;2023-02-04T08:21:35;3.40;89.60
75451;DHT22;64029;48.244;9.188;2023-02-04T08:24:03;3.40;89.60
75451;DHT22;64029;48.244;9.188;2023-02-04T08:26:31;3.40;89.60
75451;DHT22;64029;48.244;9.188;2023-02-04T08:28:58;3.40;89.60
75451;DHT22;64029;48.244;9.188;2023-02-04T08:31:24;3.40;89.60
75451;DHT22;64029;48.244;9.188;2023-02-04T08:33:51;3.40;89.60
75451;DHT22;64029;48.244;9.188;2023-02-04T08:36:18;3.30;90.10
75451;DHT22;64029;48.244;9.188;2023-02-04T08:38:45;3.30;89.50
75451;DHT22;64029;48.244;9.188;2023-02-04T08:41:12;3.30;89.50
75451;DHT22;64029;48.244;9.188;2023-02-04T08:43:40;3.30;89.60
75451;DHT22;64029;48.244;9.188;2023-02-04T08:46:07;3.40;89.70
75451;DHT22;64029;48.244;9.188;2023-02-04T08:48:33;3.40;89.60
75451;DHT22;64029;48.244;9.188;2023-02-04T08:51:00;3.40;89.60
75451;DHT22;64029;48.244;9.188;2023-02-04T08:53:27;3.40;89.60
75451;DHT22;64029;48.244;9.188;2023-02-04T08:55:54;3.40;89.60
75451;DHT22;64029;48.244;9.188;2023-02-04T08:58:21;3.40;89.50
75451;DHT22;64029;48.244;9.188;2023-02-04T09:00:49;3.40;89.50
75451;DHT22;64029;48.244;9.188;2023-02-04T09:03:16;3.30;89.60
75451;DHT22;64029;48.244;9.188;2023-02-04T09:05:42;3.40;89.50
75451;DHT22;64029;48.244;9.188;2023-02-04T09:08:09;3.30;89.30
75451;DHT22;64029;48.244;9.188;2023-02-04T09:10:36;3.30;89.30
75451;DHT22;64029;48.244;9.188;2023-02-04T09:13:03;3.40;89.40
75451;DHT22;64029;48.244;9.188;2023-02-04T09:15:30;3.40;89.70
75451;DHT22;64029;48.244;9.188;2023-02-04T09:17:58;3.40;89.60
75451;DHT22;64029;48.244;9.188;2023-02-04T09:20:35;3.40;89.50
75451;DHT22;64029;48.244;9.188;2023-02-04T09:23:03;3.40;90.00
75451;DHT22;64029;48.244;9.188;2023-02-04T09:25:33;3.40;90.00
75451;DHT22;64029;48.244;9.188;2023-02-04T09:28:00;3.50;90.40
75451;DHT22;64029;48.244;9.188;2023-02-04T09:30:27;3.50;90.10
75451;DHT22;64029;48.244;9.188;2023-02-04T09:32:53;3.50;90.00
75451;DHT22;64029;48.244;9.188;2023-02-04T09:35:21;3.50;90.20
75451;DHT22;64029;48.244;9.188;2023-02-04T09:37:49;3.50;90.00
75451;DHT22;64029;48.244;9.188;2023-02-04T09:40:16;3.50;90.00
75451;DHT22;64029;48.244;9.188;2023-02-04T09:42:46;3.50;90.00
75451;DHT22;64029;48.244;9.188;2023-02-04T09:45:17;3.50;90.00
75451;DHT22;64029;48.244;9.188;2023-02-04T09:47:44;3.50;90.00
75451;DHT22;64029;48.244;9.188;2023-02-04T09:50:14;3.60;89.90
75451;DHT22;64029;48.244;9.188;2023-02-04T09:52:43;3.60;89.90
75451;DHT22;64029;48.244;9.188;2023-02-04T10:08:00;3.60;89.10
75451;DHT22;64029;48.244;9.188;2023-02-04T10:10:27;3.90;90.00
75451;DHT22;64029;48.244;9.188;2023-02-04T10:12:59;4.00;89.90
75451;DHT22;64029;48.244;9.188;2023-02-04T10:15:27;4.10;90.00
75451;DHT22;64029;48.244;9.188;2023-02-04T10:17:57;4.10;89.70
75451;DHT22;64029;48.244;9.188;2023-02-04T10:20:24;4.20;89.60
75451;DHT22;64029;48.244;9.188;2023-02-04T10:22:53;4.20;88.70
75451;DHT22;64029;48.244;9.188;2023-02-04T10:25:24;4.20;88.40
75451;DHT22;64029;48.244;9.188;2023-02-04T10:27:53;4.20;88.10
75451;DHT22;64029;48.244;9.188;2023-02-04T10:30:22;4.20;89.30
75451;DHT22;64029;48.244;9.188;2023-02-04T10:32:50;4.30;88.40
75451;DHT22;64029;48.244;9.188;2023-02-04T10:35:18;4.30;88.70
75451;DHT22;64029;48.244;9.188;2023-02-04T10:37:45;4.30;89.10
75451;DHT22;64029;48.244;9.188;2023-02-04T10:40:28;4.30;89.00
75451;DHT22;64029;48.244;9.188;2023-02-04T10:42:55;4.40;88.80
75451;DHT22;64029;48.244;9.188;2023-02-04T10:45:24;4.40;88.80
75451;DHT22;64029;48.244;9.188;2023-02-04T10:47:52;4.40;89.10
75451;DHT22;64029;48.244;9.188;2023-02-04T10:50:21;4.40;88.40
75451;DHT22;64029;48.244;9.188;2023-02-04T10:52:51;4.40;88.20
75451;DHT22;64029;48.244;9.188;2023-02-04T10:55:21;4.50;89.00
75451;DHT22;64029;48.244;9.188;2023-02-04T10:57:51;4.50;89.10
75451;DHT22;64029;48.244;9.188;2023-02-04T11:00:20;4.60;89.20
75451;DHT22;64029;48.244;9.188;2023-02-04T11:02:51;4.60;87.90
75451;DHT22;64029;48.244;9.188;2023-02-04T11:05:22;4.60;86.40
75451;DHT22;64029;48.244;9.188;2023-02-04T11:07:50;4.60;86.90
75451;DHT22;64029;48.244;9.188;2023-02-04T11:10:19;4.60;87.20
75451;DHT22;64029;48.244;9.188;2023-02-04T11:12:58;4.60;87.50
75451;DHT22;64029;48.244;9.188;2023-02-04T11:15:43;4.60;87.80
75451;DHT22;64029;48.244;9.188;2023-02-04T11:18:12;4.60;87.80
75451;DHT22;64029;48.244;9.188;2023-02-04T11:20:52;4.70;88.10
75451;DHT22;64029;48.244;9.188;2023-02-04T11:23:38;4.60;87.40
75451;DHT22;64029;48.244;9.188;2023-02-04T11:26:11;4.70;87.60
75451;DHT22;64029;48.244;9.188;2023-02-04T11:28:50;4.80;87.40
75451;DHT22;64029;48.244;9.188;2023-02-04T11:31:42;4.80;87.40
75451;DHT22;64029;48.244;9.188;2023-02-04T11:34:25;4.70;86.70
75451;DHT22;64029;48.244;9.188;2023-02-04T11:37:18;4.70;87.00
75451;DHT22;64029;48.244;9.188;2023-02-04T11:39:57;4.70;86.30
75451;DHT22;64029;48.244;9.188;2023-02-04T11:42:29;4.70;86.50
75451;DHT22;64029;48.244;9.188;2023-02-04T11:44:58;4.80;86.10
75451;DHT22;64029;48.244;9.188;2023-02-04T11:47:34;4.80;84.90
75451;DHT22;64029;48.244;9.188;2023-02-04T11:50:03;4.70;84.90
75451;DHT22;64029;48.244;9.188;2023-02-04T11:54:59;4.70;86.00
75451;DHT22;64029;48.244;9.188;2023-02-04T11:57:26;4.80;86.60
75451;DHT22;64029;48.244;9.188;2023-02-04T11:59:53;4.80;85.60
75451;DHT22;64029;48.244;9.188;2023-02-04T12:02:22;4.90;86.40
75451;DHT22;64029;48.244;9.188;2023-02-04T12:04:55;4.90;86.90
75451;DHT22;64029;48.244;9.188;2023-02-04T12:07:24;4.90;86.00
75451;DHT22;64029;48.244;9.188;2023-02-04T12:09:52;5.00;85.70
75451;DHT22;64029;48.244;9.188;2023-02-04T12:12:24;5.00;83.60
75451;DHT22;64029;48.244;9.188;2023-02-04T12:15:01;5.00;81.10
75451;DHT22;64029;48.244;9.188;2023-02-04T12:17:28;5.00;82.70
75451;DHT22;64029;48.244;9.188;2023-02-04T12:19:57;5.10;85.20
75451;DHT22;64029;48.244;9.188;2023-02-04T12:22:24;5.10;85.70
75451;DHT22;64029;48.244;9.188;2023-02-04T12:24:50;5.10;83.30
75451;DHT22;64029;48.244;9.188;2023-02-04T12:27:18;5.10;83.70
75451;DHT22;64029;48.244;9.188;2023-02-04T12:29:45;5.10;82.30
75451;DHT22;64029;48.244;9.188;2023-02-04T12:32:11;5.10;83.50
75451;DHT22;64029;48.244;9.188;2023-02-04T12:34:38;5.20;81.50
75451;DHT22;64029;48.244;9.188;2023-02-04T12:37:06;5.30;81.10
75451;DHT22;64029;48.244;9.188;2023-02-04T12:39:33;5.30;82.20
75451;DHT22;64029;48.244;9.188;2023-02-04T12:42:00;5.30;81.30
75451;DHT22;64029;48.244;9.188;2023-02-04T12:44:28;5.20;77.40
75451;DHT22;64029;48.244;9.188;2023-02-04T12:46:55;5.20;78.50
75451;DHT22;64029;48.244;9.188;2023-02-04T12:49:22;5.20;80.60
75451;DHT22;64029;48.244;9.188;2023-02-04T12:51:50;5.20;79.90
75451;DHT22;64029;48.244;9.188;2023-02-04T12:54:18;5.20;80.40
75451;DHT22;64029;48.244;9.188;2023-02-04T12:56:45;5.30;82.40
75451;DHT22;64029;48.244;9.188;2023-02-04T12:59:13;5.30;80.10
75451;DHT22;64029;48.244;9.188;2023-02-04T13:01:40;5.20;78.30
75451;DHT22;64029;48.244;9.188;2023-02-04T13:04:07;5.30;80.70
75451;DHT22;64029;48.244;9.188;2023-02-04T13:06:34;5.30;79.40
75451;DHT22;64029;48.244;9.188;2023-02-04T13:09:01;5.30;79.00
75451;DHT22;64029;48.244;9.188;2023-02-04T13:11:29;5.30;79.20
75451;DHT22;64029;48.244;9.188;2023-02-04T13:13:56;5.40;81.70
75451;DHT22;64029;48.244;9.188;2023-02-04T13:16:23;5.40;81.50
75451;DHT22;64029;48.244;9.188;2023-02-04T13:18:50;5.30;80.70
75451;DHT22;64029;48.244;9.188;2023-02-04T13:21:17;5.40;80.70
75451;DHT22;64029;48.244;9.188;2023-02-04T13:23:43;5.30;79.60
75451;DHT22;64029;48.244;9.188;2023-02-04T13:26:10;5.30;80.80
75451;DHT22;64029;48.244;9.188;2023-02-04T13:28:38;5.30;80.70
75451;DHT22;64029;48.244;9.188;2023-02-04T13:31:05;5.40;80.50
75451;DHT22;64029;48.244;9.188;2023-02-04T13:33:32;5.40;80.80
75451;DHT22;64029;48.244;9.188;2023-02-04T13:35:59;5.40;79.80
75451;DHT22;64029;48.244;9.188;2023-02-04T13:38:26;5.40;78.70
75451;DHT22;64029;48.244;9.188;2023-02-04T13:40:53;5.40;78.50
75451;DHT22;64029;48.244;9.188;2023-02-04T13:43:19;5.30;75.40
75451;DHT22;64029;48.244;9.188;2023-02-04T13:45:48;5.30;77.90
75451;DHT22;64029;48.244;9.188;2023-02-04T13:48:15;5.30;77.60
75451;DHT22;64029;48.244;9.188;2023-02-04T13:50:41;5.30;78.80
75451;DHT22;64029;48.244;9.188;2023-02-04T13:53:08;5.30;76.70
75451;DHT22;64029;48.244;9.188;2023-02-04T13:55:35;5.30;77.50
75451;DHT22;64029;48.244;9.188;2023-02-04T13:58:02;5.30;77.20
75451;DHT22;64029;48.244;9.188;2023-02-04T14:00:29;5.30;78.50
75451;DHT22;64029;48.244;9.188;2023-02-04T14:02:57;5.30;78.50
75451;DHT22;64029;48.244;9.188;2023-02-04T14:05:24;5.30;78.40
75451;DHT22;64029;48.244;9.188;2023-02-04T14:07:51;5.30;79.90
75451;DHT22;64029;48.244;9.188;2023-02-04T14:10:18;5.20;79.30
75451;DHT22;64029;48.244;9.188;2023-02-04T14:12:47;5.20;79.80
75451;DHT22;64029;48.244;9.188;2023-02-04T14:15:14;5.30;80.80
75451;DHT22;64029;48.244;9.188;2023-02-04T14:17:41;5.20;80.10
75451;DHT22;64029;48.244;9.188;2023-02-04T14:20:10;5.10;80.40
75451;DHT22;64029;48.244;9.188;2023-02-04T14:22:37;5.20;80.50
75451;DHT22;64029;48.244;9.188;2023-02-04T14:25:04;5.20;80.50
75451;DHT22;64029;48.244;9.188;2023-02-04T14:27:31;5.20;81.20
75451;DHT22;64029;48.244;9.188;2023-02-04T14:30:02;5.20;80.40
75451;DHT22;64029;48.244;9.188;2023-02-04T14:32:30;5.20;81.20
75451;DHT22;64029;48.244;9.188;2023-02-04T14:34:57;5.20;81.30
75451;DHT22;64029;48.244;9.188;2023-02-04T14:37:25;5.20;81.30
75451;DHT22;64029;48.244;9.188;2023-02-04T14:39:53;5.20;81.40
75451;DHT22;64029;48.244;9.188;2023-02-04T14:42:20;5.10;81.40
75451;DHT22;64029;48.244;9.188;2023-02-04T14:44:47;5.10;81.60
75451;DHT22;64029;48.244;9.188;2023-02-04T14:47:14;5.10;81.70
75451;DHT22;64029;48.244;9.188;2023-02-04T14:49:41;5.10;81.70
75451;DHT22;64029;48.244;9.188;2023-02-04T14:52:07;5.10;81.90
75451;DHT22;64029;48.244;9.188;2023-02-04T14:54:37;5.10;82.20
75451;DHT22;64029;48.244;9.188;2023-02-04T14:57:04;5.10;82.10
75451;DHT22;64029;48.244;9.188;2023-02-04T14:59:31;5.00;81.40
75451;DHT22;64029;48.244;9.188;2023-02-04T15:01:58;4.90;80.80
75451;DHT22;64029;48.244;9.188;2023-02-04T15:04:24;4.90;81.20
75451;DHT22;64029;48.244;9.188;2023-02-04T15:06:51;4.90;81.50
75451;DHT22;64029;48.244;9.188;2023-02-04T15:09:18;4.90;82.10
75451;DHT22;64029;48.244;9.188;2023-02-04T15:11:46;4.90;81.50
75451;DHT22;64029;48.244;9.188;2023-02-04T15:14:13;4.90;81.90
75451;DHT22;64029;48.244;9.188;2023-02-04T15:16:40;5.00;80.80
75451;DHT22;64029;48.244;9.188;2023-02-04T15:19:13;5.00;81.40
75451;DHT22;64029;48.244;9.188;2023-02-04T15:21:40;4.90;81.30
75451;DHT22;64029;48.244;9.188;2023-02-04T15:24:07;4.90;81.70
75451;DHT22;64029;48.244;9.188;2023-02-04T15:26:34;4.90;81.70
75451;DHT22;64029;48.244;9.188;2023-02-04T15:29:02;4.80;81.80
75451;DHT22;64029;48.244;9.188;2023-02-04T15:31:29;4.80;81.90
75451;DHT22;64029;48.244;9.188;2023-02-04T15:33:56;4.80;81.70
75451;DHT22;64029;48.244;9.188;2023-02-04T15:36:23;4.80;82.20
75451;DHT22;64029;48.244;9.188;2023-02-04T15:38:49;4.90;82.30
75451;DHT22;64029;48.244;9.188;2023-02-04T15:41:16;4.90;82.10
75451;DHT22;64029;48.244;9.188;2023-02-04T15:43:43;4.80;82.20
75451;DHT22;64029;48.244;9.188;2023-02-04T15:46:11;4.80;81.70
75451;DHT22;64029;48.244;9.188;2023-02-04T15:48:38;4.80;82.10
75451;DHT22;64029;48.244;9.188;2023-02-04T15:51:05;4.80;82.00
75451;DHT22;64029;48.244;9.188;2023-02-04T15:53:32;4.80;82.10
75451;DHT22;64029;48.244;9.188;2023-02-04T15:55:59;4.70;81.90
75451;DHT22;64029;48.244;9.188;2023-02-04T15:58:26;4.70;81.90
75451;DHT22;64029;48.244;9.188;2023-02-04T16:00:53;4.70;81.90
75451;DHT22;64029;48.244;9.188;2023-02-04T16:03:21;4.70;81.90
75451;DHT22;64029;48.244;9.188;2023-02-04T16:05:48;4.60;81.80
75451;DHT22;64029;48.244;9.188;2023-02-04T16:08:16;4.60;82.00
75451;DHT22;64029;48.244;9.188;2023-02-04T16:10:43;4.60;82.00
75451;DHT22;64029;48.244;9.188;2023-02-04T16:13:10;4.50;82.00
75451;DHT22;64029;48.244;9.188;2023-02-04T16:15:37;4.50;82.10
75451;DHT22;64029;48.244;9.188;2023-02-04T16:18:04;4.50;82.30
75451;DHT22;64029;48.244;9.188;2023-02-04T16:20:32;4.50;82.50
75451;DHT22;64029;48.244;9.188;2023-02-04T16:23:01;4.40;82.50
75451;DHT22;64029;48.244;9.188;2023-02-04T16:25:28;4.30;82.50
75451;DHT22;64029;48.244;9.188;2023-02-04T16:27:55;4.30;82.60